createdAt,value
2022-12-18T00:02:22.984Z,-0.20
2022-12-18T00:05:27.339Z,-0.20
2022-12-18T00:08:31.190Z,-0.20
2022-12-18T00:11:37.300Z,-0.20
2022-12-18T00:14:41.706Z,-0.20
2022-12-18T00:17:46.412Z,-0.20
2022-12-18T00:20:51.002Z,-0.10
2022-12-18T00:23:54.976Z,-0.30
2022-12-18T00:26:59.452Z,-0.30
2022-12-18T00:30:04.113Z,-0.30
2022-12-18T00:33:08.445Z,-0.30
2022-12-18T00:36:14.425Z,-0.30
2022-12-18T00:39:18.439Z,-0.20
2022-12-18T00:42:41.858Z,-0.20
2022-12-18T00:45:46.495Z,-0.20
2022-12-18T00:48:51.028Z,-0.30
2022-12-18T00:51:58.072Z,-0.40
2022-12-18T00:55:06.255Z,-0.20
2022-12-18T00:58:11.737Z,-0.20
2022-12-18T01:01:16.179Z,-0.20
2022-12-18T01:04:20.843Z,-0.10
2022-12-18T01:07:24.947Z,-0.10
2022-12-18T01:10:28.958Z,0.20
2022-12-18T01:13:35.477Z,0.20
2022-12-18T01:16:39.755Z,0.20
2022-12-18T01:19:44.384Z,0.10
2022-12-18T01:22:48.541Z,0.10
2022-12-18T01:25:53.404Z,0.00
2022-12-18T01:28:57.777Z,0.00
2022-12-18T01:32:02.370Z,0.00
2022-12-18T01:35:08.221Z,0.00
2022-12-18T01:38:12.449Z,0.00
2022-12-18T01:41:17.563Z,0.00
2022-12-18T01:44:40.963Z,-0.10
2022-12-18T01:47:52.644Z,-0.10
2022-12-18T01:50:57.392Z,0.10
2022-12-18T01:54:02.057Z,0.00
2022-12-18T01:57:06.300Z,-0.10
2022-12-18T02:00:15.611Z,-0.20
2022-12-18T02:03:20.678Z,-0.20
2022-12-18T02:06:30.451Z,-0.10
2022-12-18T02:09:38.052Z,-0.20
2022-12-18T02:12:51.333Z,-0.20
2022-12-18T02:15:56.632Z,-0.20
2022-12-18T02:19:04.267Z,-0.20
2022-12-18T02:22:27.378Z,-0.20
2022-12-18T02:25:50.625Z,-0.10
2022-12-18T02:28:55.079Z,0.00
2022-12-18T02:32:03.583Z,0.00
2022-12-18T02:35:14.691Z,0.00
2022-12-18T02:38:19.612Z,0.10
2022-12-18T02:41:27.138Z,0.00
2022-12-18T02:44:31.444Z,-0.10
2022-12-18T02:47:41.594Z,0.00
2022-12-18T02:50:50.584Z,0.00
2022-12-18T02:53:59.667Z,0.00
2022-12-18T02:57:24.276Z,0.20
2022-12-18T03:00:36.538Z,0.10
2022-12-18T03:03:46.994Z,0.10
2022-12-18T03:06:53.531Z,0.20
2022-12-18T03:09:58.772Z,0.10
2022-12-18T03:13:13.578Z,0.10
2022-12-18T03:16:20.817Z,0.20
2022-12-18T03:19:26.965Z,0.20
2022-12-18T03:22:35.008Z,0.30
2022-12-18T03:25:42.595Z,0.30
2022-12-18T03:28:49.322Z,0.30
2022-12-18T03:31:59.495Z,0.30
2022-12-18T03:35:05.742Z,0.40
2022-12-18T03:38:14.267Z,0.40
2022-12-18T03:41:23.142Z,0.40
2022-12-18T03:45:12.204Z,0.40
2022-12-18T03:48:20.083Z,0.40
2022-12-18T03:51:37.812Z,0.40
2022-12-18T03:54:42.716Z,0.40
2022-12-18T03:57:53.177Z,0.40
2022-12-18T04:01:00.644Z,0.40
2022-12-18T04:04:05.988Z,0.30
2022-12-18T04:07:14.347Z,0.30
2022-12-18T04:10:21.482Z,0.40
2022-12-18T04:13:29.360Z,0.30
2022-12-18T04:16:35.155Z,0.40
2022-12-18T04:19:41.727Z,0.50
2022-12-18T04:22:46.521Z,0.50
2022-12-18T04:25:51.613Z,0.50
2022-12-18T04:29:08.869Z,0.50
2022-12-18T04:32:13.584Z,0.50
2022-12-18T04:35:20.550Z,0.50
2022-12-18T04:38:25.477Z,0.50
2022-12-18T04:41:38.443Z,0.50
2022-12-18T04:44:42.972Z,0.50
2022-12-18T04:47:47.696Z,0.50
2022-12-18T04:50:51.716Z,0.50
2022-12-18T04:53:56.100Z,0.50
2022-12-18T04:57:00.099Z,0.50
2022-12-18T05:00:05.344Z,0.40
2022-12-18T05:03:09.443Z,0.40
2022-12-18T05:06:13.869Z,0.40
2022-12-18T05:09:17.864Z,0.40
2022-12-18T05:12:23.860Z,0.30
2022-12-18T05:15:28.654Z,0.40
2022-12-18T05:18:33.547Z,0.30
2022-12-18T05:21:37.931Z,0.30
2022-12-18T05:24:42.501Z,0.50
2022-12-18T05:27:47.393Z,0.40
2022-12-18T05:30:58.478Z,0.50
2022-12-18T05:34:02.878Z,0.50
2022-12-18T05:37:06.787Z,0.40
2022-12-18T05:40:11.274Z,0.50
2022-12-18T05:43:21.001Z,0.50
2022-12-18T05:46:25.646Z,0.40
2022-12-18T05:49:30.228Z,0.50
2022-12-18T05:52:34.388Z,0.50
2022-12-18T05:55:39.494Z,0.40
2022-12-18T05:58:44.065Z,0.40
2022-12-18T06:01:48.708Z,0.40
2022-12-18T06:04:53.222Z,0.40
2022-12-18T06:07:57.782Z,0.40
2022-12-18T06:11:01.949Z,0.40
2022-12-18T06:14:06.977Z,0.50
2022-12-18T06:17:11.160Z,0.40
2022-12-18T06:20:15.899Z,0.30
2022-12-18T06:23:21.095Z,0.40
2022-12-18T06:26:28.244Z,0.40
2022-12-18T06:29:32.599Z,0.40
2022-12-18T06:32:36.598Z,0.40
2022-12-18T06:35:40.628Z,0.40
2022-12-18T06:38:45.547Z,0.30
2022-12-18T06:41:49.591Z,0.30
2022-12-18T06:44:53.874Z,0.20
2022-12-18T06:47:57.969Z,0.30
2022-12-18T06:51:03.800Z,0.40
2022-12-18T06:54:08.109Z,0.40
2022-12-18T06:57:12.182Z,0.40
2022-12-18T07:00:16.915Z,0.30
2022-12-18T07:03:21.614Z,0.40
2022-12-18T07:06:26.882Z,0.40
2022-12-18T07:09:30.933Z,0.50
2022-12-18T07:12:35.259Z,0.50
2022-12-18T07:15:39.788Z,0.50
2022-12-18T07:18:44.642Z,0.50
2022-12-18T07:21:48.525Z,0.50
2022-12-18T07:24:53.028Z,0.50
2022-12-18T07:27:57.642Z,0.50
2022-12-18T07:31:08.902Z,0.50
2022-12-18T07:34:14.111Z,0.50
2022-12-18T07:37:18.032Z,0.50
2022-12-18T07:40:22.200Z,0.60
2022-12-18T07:43:25.923Z,0.60
2022-12-18T07:46:29.825Z,0.60
2022-12-18T07:49:34.368Z,0.70
2022-12-18T07:52:38.625Z,0.80
2022-12-18T07:56:17.878Z,0.80
2022-12-18T07:59:07.080Z,0.90
2022-12-18T08:02:11.221Z,0.90
2022-12-18T08:05:16.654Z,0.90
2022-12-18T08:08:20.595Z,1.00
2022-12-18T08:11:25.663Z,1.10
2022-12-18T08:14:29.855Z,1.10
2022-12-18T08:17:33.892Z,1.10
2022-12-18T08:20:38.307Z,1.20
2022-12-18T08:23:43.513Z,1.30
2022-12-18T08:27:06.693Z,1.30
2022-12-18T08:30:12.950Z,1.40
2022-12-18T08:33:17.516Z,1.40
2022-12-18T08:36:22.696Z,1.60
2022-12-18T08:39:27.379Z,1.80
2022-12-18T08:42:50.037Z,1.90
2022-12-18T08:45:54.412Z,2.00
2022-12-18T08:48:58.988Z,2.10
2022-12-18T08:52:03.812Z,2.30
2022-12-18T08:55:09.133Z,2.60
2022-12-18T08:58:13.447Z,2.60
2022-12-18T09:01:17.557Z,2.50
2022-12-18T09:04:22.156Z,2.50
2022-12-18T09:07:26.725Z,2.70
2022-12-18T09:10:31.339Z,2.60
2022-12-18T09:13:35.857Z,2.70
2022-12-18T09:16:40.031Z,2.80
2022-12-18T09:19:44.940Z,3.00
2022-12-18T09:22:49.297Z,3.20
2022-12-18T09:25:59.435Z,3.20
2022-12-18T09:29:04.384Z,3.10
2022-12-18T09:32:08.542Z,3.20
2022-12-18T09:35:12.943Z,3.20
2022-12-18T09:38:19.405Z,3.20
2022-12-18T09:41:35.880Z,2.60
2022-12-18T09:44:45.335Z,2.30
2022-12-18T09:47:52.197Z,2.10
2022-12-18T09:51:00.697Z,2.00
2022-12-18T09:54:06.780Z,1.90
2022-12-18T09:57:16.469Z,1.70
2022-12-18T10:00:22.313Z,1.70
2022-12-18T10:03:27.547Z,1.60
2022-12-18T10:06:43.824Z,1.60
2022-12-18T10:10:08.193Z,1.60
2022-12-18T10:13:12.769Z,1.60
2022-12-18T10:16:20.359Z,1.60
2022-12-18T10:19:27.846Z,1.50
2022-12-18T10:22:38.451Z,1.50
2022-12-18T10:25:51.404Z,1.50
2022-12-18T10:29:02.169Z,1.40
2022-12-18T10:32:14.099Z,1.50
2022-12-18T10:35:20.423Z,1.50
2022-12-18T10:38:32.722Z,1.40
2022-12-18T10:41:36.994Z,1.20
2022-12-18T10:44:41.356Z,1.20
2022-12-18T10:47:47.081Z,1.20
2022-12-18T10:51:10.854Z,1.30
2022-12-18T10:54:22.071Z,1.60
2022-12-18T10:57:31.316Z,1.70
2022-12-18T11:00:36.955Z,1.70
2022-12-18T11:04:02.048Z,1.90
2022-12-18T11:07:08.597Z,2.00
2022-12-18T11:10:16.761Z,2.20
2022-12-18T11:13:22.503Z,2.70
2022-12-18T11:16:27.671Z,3.10
2022-12-18T11:19:34.773Z,2.90
2022-12-18T11:22:39.297Z,2.70
2022-12-18T11:25:51.535Z,2.50
2022-12-18T11:29:10.144Z,2.40
2022-12-18T11:32:33.506Z,2.50
2022-12-18T11:35:48.539Z,2.40
2022-12-18T11:38:55.527Z,2.80
2022-12-18T11:42:12.748Z,3.00
2022-12-18T11:45:17.119Z,3.00
2022-12-18T11:48:27.825Z,3.10
2022-12-18T11:51:49.057Z,2.80
2022-12-18T11:54:54.282Z,2.70
2022-12-18T11:58:18.747Z,2.50
2022-12-18T12:01:44.012Z,2.40
2022-12-18T12:05:03.283Z,2.40
2022-12-18T12:08:26.879Z,2.20
2022-12-18T12:11:50.291Z,2.10
2022-12-18T12:14:57.366Z,2.10
2022-12-18T12:18:11.442Z,2.00
2022-12-18T12:21:18.741Z,1.90
2022-12-18T12:24:50.204Z,2.00
2022-12-18T12:28:13.019Z,2.10
2022-12-18T12:31:45.376Z,2.40
2022-12-18T12:35:10.046Z,2.30
2022-12-18T12:38:16.844Z,2.40
2022-12-18T12:41:43.332Z,2.70
2022-12-18T12:44:56.198Z,2.60
2022-12-18T12:48:02.483Z,2.50
2022-12-18T12:51:19.103Z,2.40
2022-12-18T12:54:25.750Z,2.20
2022-12-18T12:57:37.668Z,1.90
2022-12-18T13:00:44.999Z,1.80
2022-12-18T13:03:55.765Z,1.60
2022-12-18T13:07:00.178Z,1.50
2022-12-18T13:10:20.860Z,1.40
2022-12-18T13:13:25.389Z,1.40
2022-12-18T13:16:30.089Z,1.20
2022-12-18T13:19:34.398Z,1.10
2022-12-18T13:22:48.884Z,1.10
2022-12-18T13:25:54.024Z,1.10
2022-12-18T13:28:58.493Z,1.10
2022-12-18T13:32:03.057Z,1.10
2022-12-18T13:35:22.751Z,1.30
2022-12-18T13:38:27.960Z,1.50
2022-12-18T13:41:32.375Z,1.60
2022-12-18T13:44:40.722Z,1.50
2022-12-18T13:47:45.186Z,1.30
2022-12-18T13:50:54.361Z,1.00
2022-12-18T13:54:00.510Z,1.00
2022-12-18T13:57:05.896Z,0.90
2022-12-18T14:00:25.656Z,0.80
2022-12-18T14:03:31.549Z,0.80
2022-12-18T14:06:36.529Z,0.80
2022-12-18T14:09:42.848Z,0.70
2022-12-18T14:13:01.275Z,0.70
2022-12-18T14:16:08.873Z,0.70
2022-12-18T14:19:15.855Z,0.60
2022-12-18T14:22:31.784Z,0.60
2022-12-18T14:25:36.222Z,0.50
2022-12-18T14:28:44.553Z,0.50
2022-12-18T14:32:05.461Z,0.40
2022-12-18T14:35:14.350Z,0.30
2022-12-18T14:38:24.939Z,0.30
2022-12-18T14:41:29.707Z,0.20
2022-12-18T14:44:44.117Z,0.20
2022-12-18T14:47:54.788Z,0.20
2022-12-18T14:51:04.277Z,0.10
2022-12-18T14:54:16.817Z,0.00
2022-12-18T14:57:31.313Z,-0.20
2022-12-18T15:00:42.101Z,-0.30
2022-12-18T15:03:46.200Z,-0.40
2022-12-18T15:07:02.616Z,-0.40
2022-12-18T15:10:09.704Z,-0.50
2022-12-18T15:13:22.829Z,-0.50
2022-12-18T15:16:27.217Z,-0.50
2022-12-18T15:19:36.840Z,-0.40
2022-12-18T15:22:40.934Z,-0.50
2022-12-18T15:25:46.025Z,-0.50
2022-12-18T15:28:50.880Z,-0.50
2022-12-18T15:32:05.249Z,-0.50
2022-12-18T15:35:09.440Z,-0.50
2022-12-18T15:38:14.127Z,-0.50
2022-12-18T15:41:24.363Z,-0.50
2022-12-18T15:44:29.019Z,-0.50
2022-12-18T15:47:34.047Z,-0.50
2022-12-18T15:50:38.795Z,-0.40
2022-12-18T15:53:43.708Z,-0.60
2022-12-18T15:57:07.177Z,-0.60
2022-12-18T16:00:13.032Z,-0.60
2022-12-18T16:03:18.384Z,-0.70
2022-12-18T16:06:23.666Z,-0.70
2022-12-18T16:09:28.073Z,-0.80
2022-12-18T16:12:32.660Z,-0.90
2022-12-18T16:15:37.181Z,-0.80
2022-12-18T16:18:41.730Z,-0.90
2022-12-18T16:21:47.093Z,-0.90
2022-12-18T16:24:52.016Z,-1.00
2022-12-18T16:27:56.944Z,-1.00
2022-12-18T16:31:01.260Z,-1.10
2022-12-18T16:34:23.618Z,-1.10
2022-12-18T16:37:31.157Z,-0.90
2022-12-18T16:40:55.210Z,-0.90
2022-12-18T16:44:00.477Z,-0.90
2022-12-18T16:47:04.910Z,-1.20
2022-12-18T16:50:11.155Z,-1.10
2022-12-18T16:53:15.557Z,-1.20
2022-12-18T16:56:20.346Z,-1.10
2022-12-18T16:59:26.554Z,-1.00
2022-12-18T17:02:30.990Z,-1.00
2022-12-18T17:05:35.477Z,-1.00
2022-12-18T17:08:40.108Z,-1.00
2022-12-18T17:11:44.439Z,-1.00
2022-12-18T17:14:48.784Z,-1.00
2022-12-18T17:17:52.840Z,-0.90
2022-12-18T17:21:01.161Z,-1.00
2022-12-18T17:24:06.103Z,-1.00
2022-12-18T17:27:10.273Z,-1.10
2022-12-18T17:30:14.411Z,-1.00
2022-12-18T17:33:18.945Z,-0.90
2022-12-18T17:36:23.920Z,-0.90
2022-12-18T17:39:28.760Z,-0.90
2022-12-18T17:42:33.106Z,-0.80
2022-12-18T17:45:40.506Z,-0.90
2022-12-18T17:48:44.632Z,-0.90
2022-12-18T17:51:48.942Z,-1.00
2022-12-18T17:54:53.154Z,-0.90
2022-12-18T17:57:57.502Z,-0.90
2022-12-18T18:01:01.506Z,-0.90
2022-12-18T18:04:07.281Z,-0.90
2022-12-18T18:07:11.659Z,-1.00
2022-12-18T18:10:15.548Z,-1.00
2022-12-18T18:13:46.460Z,-1.00
2022-12-18T18:16:51.924Z,-1.00
2022-12-18T18:19:56.383Z,-1.00
2022-12-18T18:23:00.962Z,-1.00
2022-12-18T18:26:05.718Z,-1.00
2022-12-18T18:29:13.896Z,-1.00
2022-12-18T18:32:18.682Z,-1.10
2022-12-18T18:35:52.443Z,-1.10
2022-12-18T18:38:48.644Z,-1.10
2022-12-18T18:41:53.247Z,-1.20
2022-12-18T18:44:57.809Z,-1.20
2022-12-18T18:48:02.402Z,-1.20
2022-12-18T18:51:12.233Z,-1.30
2022-12-18T18:54:19.127Z,-1.30
2022-12-18T18:57:27.450Z,-1.40
2022-12-18T19:00:34.933Z,-1.40
2022-12-18T19:03:40.363Z,-1.40
2022-12-18T19:06:47.655Z,-1.40
2022-12-18T19:09:54.163Z,-1.50
2022-12-18T19:13:17.425Z,-1.70
2022-12-18T19:16:21.893Z,-1.80
2022-12-18T19:19:28.292Z,-1.90
2022-12-18T19:22:32.925Z,-2.00
2022-12-18T19:25:41.111Z,-1.90
2022-12-18T19:28:46.567Z,-1.90
2022-12-18T19:31:51.167Z,-1.90
2022-12-18T19:34:56.029Z,-1.90
2022-12-18T19:38:01.021Z,-1.90
2022-12-18T19:41:06.266Z,-2.00
2022-12-18T19:44:15.539Z,-2.10
2022-12-18T19:47:20.056Z,-2.00
2022-12-18T19:50:24.236Z,-2.00
2022-12-18T19:53:29.094Z,-2.10
2022-12-18T19:56:34.335Z,-2.00
2022-12-18T19:59:38.927Z,-2.10
2022-12-18T20:02:43.766Z,-2.20
2022-12-18T20:05:48.111Z,-2.20
2022-12-18T20:08:51.962Z,-2.20
2022-12-18T20:11:58.128Z,-2.20
2022-12-18T20:15:02.818Z,-2.20
2022-12-18T20:18:08.585Z,-2.10
2022-12-18T20:21:14.208Z,-2.10
2022-12-18T20:24:18.405Z,-2.10
2022-12-18T20:27:23.010Z,-2.10
2022-12-18T20:30:28.362Z,-2.10
2022-12-18T20:33:32.564Z,-1.90
2022-12-18T20:36:37.669Z,-2.00
2022-12-18T20:39:43.013Z,-2.00
2022-12-18T20:42:47.561Z,-2.00
2022-12-18T20:45:51.848Z,-1.90
2022-12-18T20:48:56.567Z,-1.80
2022-12-18T20:52:02.985Z,-1.90
2022-12-18T20:55:07.365Z,-1.80
2022-12-18T20:58:11.635Z,-1.80
2022-12-18T21:01:17.283Z,-1.70
2022-12-18T21:04:21.975Z,-1.70
2022-12-18T21:07:27.520Z,-1.60
2022-12-18T21:10:32.006Z,-1.80
2022-12-18T21:13:36.649Z,-1.80
2022-12-18T21:16:43.750Z,-1.80
2022-12-18T21:19:48.075Z,-1.90
2022-12-18T21:22:52.789Z,-1.80
2022-12-18T21:26:14.860Z,-1.80
2022-12-18T21:29:20.677Z,-1.70
2022-12-18T21:32:25.077Z,-1.70
2022-12-18T21:35:32.770Z,-1.70
2022-12-18T21:38:37.575Z,-1.70
2022-12-18T21:42:00.819Z,-1.70
2022-12-18T21:45:05.140Z,-1.60
2022-12-18T21:48:09.475Z,-1.60
2022-12-18T21:51:13.612Z,-1.70
2022-12-18T21:54:18.667Z,-1.70
2022-12-18T21:57:22.958Z,-1.60
2022-12-18T22:00:27.704Z,-1.60
2022-12-18T22:03:31.698Z,-1.70
2022-12-18T22:06:36.343Z,-1.60
2022-12-18T22:09:40.600Z,-1.70
2022-12-18T22:12:45.923Z,-1.80
2022-12-18T22:15:50.365Z,-1.80
2022-12-18T22:18:55.152Z,-1.90
2022-12-18T22:21:59.522Z,-1.90
2022-12-18T22:25:03.664Z,-2.00
2022-12-18T22:28:26.399Z,-2.10
2022-12-18T22:31:30.724Z,-2.00
2022-12-18T22:34:36.835Z,-2.00
2022-12-18T22:37:41.324Z,-2.20
2022-12-18T22:40:45.230Z,-2.20
2022-12-18T22:43:49.219Z,-2.10
2022-12-18T22:47:05.509Z,-2.00
2022-12-18T22:50:12.860Z,-2.10
2022-12-18T22:53:17.017Z,-2.00
2022-12-18T22:56:21.355Z,-2.10
2022-12-18T22:59:25.756Z,-2.00
2022-12-18T23:02:30.287Z,-2.00
2022-12-18T23:05:34.594Z,-2.00
2022-12-18T23:08:39.216Z,-2.00
2022-12-18T23:11:43.488Z,-2.00
2022-12-18T23:14:47.866Z,-1.90
2022-12-18T23:17:52.420Z,-1.90
2022-12-18T23:20:56.961Z,-1.70
2022-12-18T23:24:01.964Z,-1.70
2022-12-18T23:27:06.534Z,-1.60
2022-12-18T23:30:15.912Z,-1.70
2022-12-18T23:33:19.939Z,-1.60
2022-12-18T23:36:24.876Z,-1.60
2022-12-18T23:39:30.392Z,-1.60
2022-12-18T23:42:34.854Z,-1.60
2022-12-18T23:45:38.967Z,-1.60
2022-12-18T23:48:43.292Z,-1.70
2022-12-18T23:51:47.516Z,-1.60
2022-12-18T23:54:51.641Z,-1.60
2022-12-18T23:57:56.445Z,-1.60
